Time;durP1;ratioP1;P1;durP2;ratioP2;P2;SDS_P1;SDS_P2;PMS_P1;PMS_P2;Temp;Humidity;BMP_temperature;BMP_pressure;BME280_temperature;BME280_humidity;BME280_pressure;Samples;Min_cycle;Max_cycle;Signal;HPM_P1;HPM_P2
2023/09/30 00:00:26;;;;;;;0.60;0.60;;;11.00;99.90;;;;;;5116501;28;20043;-74
2023/09/30 00:02:52;;;;;;;0.40;0.40;;;11.00;99.90;;;;;;5116113;28;20542;-75
2023/09/30 00:05:19;;;;;;;0.50;0.50;;;11.00;99.90;;;;;;5116330;28;20127;-75
2023/09/30 00:07:45;;;;;;;0.70;0.70;;;11.20;99.90;;;;;;5116181;28;20056;-76
2023/09/30 00:10:11;;;;;;;0.50;0.50;;;11.00;99.90;;;;;;5116342;28;20088;-75
2023/09/30 00:12:37;;;;;;;0.98;0.98;;;11.00;99.90;;;;;;5115981;28;20365;-74
2023/09/30 00:15:03;;;;;;;0.50;0.50;;;11.10;99.90;;;;;;5116477;28;20040;-74
2023/09/30 00:17:29;;;;;;;0.50;0.50;;;11.00;99.90;;;;;;5116176;28;20477;-74
2023/09/30 00:19:55;;;;;;;0.40;0.40;;;11.00;99.90;;;;;;5116105;28;20079;-75
2023/09/30 00:22:21;;;;;;;0.50;0.50;;;11.00;99.90;;;;;;5116131;28;20375;-74
2023/09/30 00:24:47;;;;;;;0.50;0.50;;;11.00;99.90;;;;;;5116029;28;20374;-76
2023/09/30 00:27:12;;;;;;;1.10;0.93;;;11.00;99.90;;;;;;5116034;27;20054;-74
2023/09/30 00:29:38;;;;;;;0.50;0.50;;;11.00;99.90;;;;;;5115930;28;20053;-75
2023/09/30 00:32:04;;;;;;;0.50;0.50;;;11.00;99.90;;;;;;5115873;28;20075;-75
2023/09/30 00:34:33;;;;;;;0.70;0.70;;;11.00;99.90;;;;;;5115693;28;20031;-75
2023/09/30 00:36:58;;;;;;;0.50;0.50;;;10.90;99.90;;;;;;5115743;28;20031;-75
2023/09/30 00:39:26;;;;;;;0.40;0.40;;;10.90;99.90;;;;;;5115652;28;20081;-74
2023/09/30 00:41:54;;;;;;;0.80;0.50;;;11.10;99.90;;;;;;5115739;28;20047;-74
2023/09/30 00:44:19;;;;;;;0.47;0.47;;;10.80;99.90;;;;;;5115580;28;20084;-75
2023/09/30 00:46:45;;;;;;;0.93;0.93;;;10.90;99.90;;;;;;5115794;28;20047;-75
2023/09/30 00:49:14;;;;;;;1.10;0.85;;;10.90;99.90;;;;;;5114121;28;20427;-73
2023/09/30 00:51:40;;;;;;;0.80;0.80;;;10.90;99.90;;;;;;5115435;28;20078;-75
2023/09/30 00:54:06;;;;;;;0.50;0.50;;;11.00;99.90;;;;;;5115393;28;20043;-75
2023/09/30 00:56:33;;;;;;;0.43;0.43;;;10.90;99.90;;;;;;5115433;28;20078;-76
2023/09/30 00:58:59;;;;;;;0.60;0.60;;;10.90;99.90;;;;;;5115531;28;20039;-74
2023/09/30 01:01:25;;;;;;;3.30;0.60;;;10.90;99.90;;;;;;5114491;28;20035;-75
2023/09/30 01:03:51;;;;;;;0.90;0.90;;;11.10;99.90;;;;;;5115145;28;20470;-76
2023/09/30 01:06:17;;;;;;;0.40;0.40;;;10.90;99.90;;;;;;5115301;28;20069;-74
2023/09/30 01:08:43;;;;;;;0.60;0.60;;;10.90;99.90;;;;;;5114020;28;20051;-74
2023/09/30 01:11:09;;;;;;;0.70;0.70;;;10.90;99.90;;;;;;5115187;28;20464;-76
2023/09/30 01:13:36;;;;;;;0.55;0.55;;;10.90;99.90;;;;;;5115112;28;20039;-73
2023/09/30 01:16:05;;;;;;;;;;;10.90;99.90;;;;;;5115152;28;20379;-74
2023/09/30 01:18:31;;;;;;;0.60;0.60;;;11.00;99.90;;;;;;5114952;28;19957;-74
2023/09/30 01:21:01;;;;;;;0.60;0.60;;;11.00;99.90;;;;;;5114952;28;20043;-75
2023/09/30 01:23:28;;;;;;;19.73;3.42;;;11.00;99.90;;;;;;5113813;28;20468;-73
2023/09/30 01:25:53;;;;;;;1.00;0.95;;;11.00;99.90;;;;;;5114809;28;20047;-75
2023/09/30 01:28:19;;;;;;;0.80;0.80;;;11.00;99.90;;;;;;5113642;28;20035;-75
2023/09/30 01:30:45;;;;;;;0.35;0.35;;;11.40;99.90;;;;;;5114731;28;20051;-75
2023/09/30 01:33:10;;;;;;;0.60;0.60;;;11.10;99.90;;;;;;5114676;28;20487;-73
2023/09/30 01:35:36;;;;;;;0.63;0.50;;;11.00;99.90;;;;;;5115073;28;20039;-74
2023/09/30 01:38:02;;;;;;;0.50;0.50;;;11.00;99.90;;;;;;5114612;28;20047;-74
2023/09/30 01:40:27;;;;;;;0.70;0.70;;;11.10;99.90;;;;;;5114599;28;20125;-74
2023/09/30 01:42:53;;;;;;;0.60;0.60;;;11.10;99.90;;;;;;5114521;28;20036;-74
2023/09/30 01:45:18;;;;;;;0.77;0.77;;;11.00;99.90;;;;;;5114193;28;20046;-75
2023/09/30 01:47:44;;;;;;;0.50;0.50;;;11.10;99.90;;;;;;5114387;28;20046;-76
2023/09/30 01:50:10;;;;;;;0.60;0.60;;;11.10;99.90;;;;;;5114460;28;20040;-74
2023/09/30 01:52:36;;;;;;;0.40;0.40;;;11.10;99.90;;;;;;5114447;28;20086;-74
2023/09/30 01:55:01;;;;;;;0.60;0.60;;;11.10;99.90;;;;;;5114206;28;20075;-74
2023/09/30 01:57:27;;;;;;;0.50;0.50;;;11.10;99.90;;;;;;5113518;28;20126;-75
2023/09/30 01:59:53;;;;;;;0.50;0.50;;;11.10;99.90;;;;;;5114115;28;20040;-74
2023/09/30 02:02:18;;;;;;;0.50;0.50;;;11.10;99.90;;;;;;5114274;28;20475;-75
2023/09/30 02:04:44;;;;;;;0.60;0.60;;;11.10;99.90;;;;;;5114470;28;20040;-75
2023/09/30 02:07:09;;;;;;;0.85;0.80;;;11.00;99.90;;;;;;5114628;28;20035;-76
2023/09/30 02:09:36;;;;;;;0.50;0.50;;;11.10;99.90;;;;;;5114212;28;20467;-74
2023/09/30 02:12:02;;;;;;;0.60;0.60;;;11.00;99.90;;;;;;5113811;28;20592;-73
2023/09/30 02:14:27;;;;;;;0.90;0.90;;;11.00;99.90;;;;;;5114083;28;20042;-74
2023/09/30 02:16:53;;;;;;;0.50;0.50;;;10.90;99.90;;;;;;5114128;28;20428;-75
2023/09/30 02:19:19;;;;;;;0.50;0.50;;;10.90;99.90;;;;;;5113918;28;20116;-74
2023/09/30 02:21:45;;;;;;;3.30;0.80;;;11.00;99.90;;;;;;5114094;28;20049;-74
2023/09/30 02:24:11;;;;;;;0.50;0.50;;;11.00;99.90;;;;;;5113976;28;20115;-75
2023/09/30 02:26:38;;;;;;;0.60;0.60;;;10.90;99.90;;;;;;5114036;28;20122;-74
2023/09/30 02:29:07;;;;;;;0.60;0.60;;;10.80;99.90;;;;;;5113811;28;20040;-74
2023/09/30 02:31:33;;;;;;;0.65;0.65;;;10.80;99.90;;;;;;5113595;28;20168;-74
2023/09/30 02:33:59;;;;;;;0.50;0.50;;;10.80;99.90;;;;;;5113774;28;20096;-75
2023/09/30 02:36:27;;;;;;;0.60;0.60;;;11.30;99.90;;;;;;5114289;28;20472;-75
2023/09/30 02:38:53;;;;;;;0.65;0.50;;;10.70;99.90;;;;;;5113899;28;20040;-74
2023/09/30 02:41:19;;;;;;;0.57;0.57;;;10.80;99.90;;;;;;5114127;28;20058;-75
2023/09/30 02:43:44;;;;;;;0.50;0.50;;;10.80;99.90;;;;;;5113833;28;20035;-74
2023/09/30 02:46:10;;;;;;;0.60;0.60;;;10.80;99.90;;;;;;5113871;28;20036;-75
2023/09/30 02:48:35;;;;;;;0.60;0.60;;;10.80;99.90;;;;;;5113416;28;20035;-75
2023/09/30 02:51:01;;;;;;;0.60;0.60;;;10.80;99.90;;;;;;5114386;28;20062;-76
2023/09/30 02:53:27;;;;;;;0.55;0.55;;;10.80;99.90;;;;;;5114019;28;20348;-74
2023/09/30 02:55:56;;;;;;;0.57;0.57;;;10.80;99.90;;;;;;5112632;28;20046;-74
2023/09/30 02:58:23;;;;;;;0.60;0.60;;;10.80;99.90;;;;;;5113350;28;20471;-76
2023/09/30 03:00:49;;;;;;;0.60;0.60;;;10.80;99.90;;;;;;5112481;28;20036;-76
2023/09/30 03:03:15;;;;;;;0.80;0.80;;;10.80;99.90;;;;;;5113630;28;20040;-75
2023/09/30 03:05:41;;;;;;;1.13;0.60;;;10.80;99.90;;;;;;5113699;28;20043;-74
2023/09/30 03:08:07;;;;;;;0.50;0.50;;;10.80;99.90;;;;;;5095705;28;20058;-74
2023/09/30 03:10:32;;;;;;;0.57;0.57;;;10.80;99.90;;;;;;5113629;28;20126;-75
2023/09/30 03:13:04;;;;;;;0.63;0.63;;;10.80;99.90;;;;;;5113585;28;20085;-73
2023/09/30 03:15:32;;;;;;;0.60;0.60;;;10.80;99.90;;;;;;5113422;28;20071;-73
2023/09/30 03:17:59;;;;;;;0.50;0.50;;;10.80;99.90;;;;;;5113524;28;20042;-74
2023/09/30 03:20:25;;;;;;;;;;;10.90;99.90;;;;;;5113888;28;20092;-74
2023/09/30 03:22:51;;;;;;;0.70;0.70;;;10.80;99.90;;;;;;5113440;28;19915;-75
2023/09/30 03:25:18;;;;;;;0.50;0.50;;;10.80;99.90;;;;;;5117073;28;20032;-75
2023/09/30 03:27:46;;;;;;;0.60;0.60;;;10.70;99.90;;;;;;5117168;28;20391;-75
2023/09/30 03:30:13;;;;;;;0.50;0.50;;;10.80;99.90;;;;;;5117021;28;20054;-75
2023/09/30 03:32:39;;;;;;;0.50;0.50;;;10.70;99.90;;;;;;5117063;28;20037;-74
2023/09/30 03:35:10;;;;;;;0.68;0.68;;;10.70;99.90;;;;;;5117000;27;20043;-74
2023/09/30 03:37:38;;;;;;;0.43;0.43;;;10.70;99.90;;;;;;5117234;27;20063;-73
2023/09/30 03:40:12;;;;;;;0.70;0.70;;;10.80;99.90;;;;;;5117096;28;20044;-74
2023/09/30 03:42:39;;;;;;;0.63;0.63;;;10.70;99.90;;;;;;5116977;28;20387;-74
2023/09/30 03:45:07;;;;;;;;;;;10.70;99.90;;;;;;5117153;28;20035;-75
2023/09/30 03:47:34;;;;;;;0.63;0.63;;;10.70;99.90;;;;;;5116728;28;20255;-73
2023/09/30 03:49:59;;;;;;;0.50;0.50;;;10.70;99.90;;;;;;5116412;28;20525;-75
2023/09/30 03:52:26;;;;;;;0.60;0.60;;;10.70;99.90;;;;;;5116717;27;20039;-75
2023/09/30 03:54:53;;;;;;;0.60;0.60;;;10.70;99.90;;;;;;5116599;28;20038;-74
2023/09/30 03:57:19;;;;;;;0.70;0.70;;;10.70;99.90;;;;;;5116513;28;20094;-73
2023/09/30 03:59:48;;;;;;;0.70;0.70;;;10.70;99.90;;;;;;5116594;28;20079;-75
2023/09/30 04:02:14;;;;;;;0.50;0.50;;;10.70;99.90;;;;;;5117027;28;20123;-73
2023/09/30 04:04:40;;;;;;;0.60;0.60;;;10.70;99.90;;;;;;5116368;28;20415;-73
2023/09/30 04:07:06;;;;;;;0.52;0.52;;;10.60;99.90;;;;;;5116109;28;20082;-75
2023/09/30 04:09:32;;;;;;;0.50;0.50;;;10.60;99.90;;;;;;5116432;28;20044;-74
2023/09/30 04:11:58;;;;;;;0.60;0.60;;;10.60;99.90;;;;;;5116256;28;20064;-74
2023/09/30 04:14:25;;;;;;;0.60;0.60;;;10.60;99.90;;;;;;5116185;28;20039;-73
2023/09/30 04:16:50;;;;;;;0.40;0.40;;;10.50;99.90;;;;;;5115068;28;20047;-74
2023/09/30 04:19:16;;;;;;;0.60;0.60;;;10.60;99.90;;;;;;5116546;28;20047;-75
2023/09/30 04:21:42;;;;;;;0.60;0.60;;;10.60;99.90;;;;;;5116167;28;20062;-76
2023/09/30 04:24:09;;;;;;;0.60;0.60;;;10.80;99.90;;;;;;5116292;28;20046;-74
2023/09/30 04:26:34;;;;;;;3.50;1.37;;;10.60;99.90;;;;;;5115971;28;20097;-75
2023/09/30 04:29:01;;;;;;;0.50;0.50;;;10.70;99.90;;;;;;5116000;27;20043;-76
2023/09/30 04:31:28;;;;;;;0.50;0.50;;;10.60;99.90;;;;;;5115950;28;20035;-74
2023/09/30 04:33:54;;;;;;;0.50;0.50;;;10.60;99.90;;;;;;5115838;28;20112;-75
2023/09/30 04:36:21;;;;;;;0.60;0.60;;;10.60;99.90;;;;;;5115782;28;20472;-75
2023/09/30 04:38:47;;;;;;;0.50;0.50;;;10.60;99.90;;;;;;5115775;28;20423;-75
2023/09/30 04:41:13;;;;;;;0.60;0.60;;;10.60;99.90;;;;;;5115727;28;20157;-74
2023/09/30 04:43:39;;;;;;;0.50;0.50;;;10.60;99.90;;;;;;5115824;28;20122;-75
2023/09/30 04:46:07;;;;;;;0.67;0.63;;;10.60;99.90;;;;;;5116122;28;20069;-75
2023/09/30 04:48:32;;;;;;;0.50;0.50;;;10.70;99.90;;;;;;5115440;28;20835;-75
2023/09/30 04:50:58;;;;;;;0.60;0.60;;;10.70;99.90;;;;;;5115842;28;20040;-75
2023/09/30 04:53:23;;;;;;;0.85;0.52;;;10.60;99.90;;;;;;5115696;28;20039;-73
2023/09/30 04:55:50;;;;;;;0.60;0.60;;;10.70;99.90;;;;;;5115451;28;20065;-75
2023/09/30 04:58:16;;;;;;;0.50;0.50;;;10.70;99.90;;;;;;5115376;28;20105;-75
2023/09/30 05:00:42;;;;;;;0.50;0.50;;;10.70;99.90;;;;;;5115814;28;20318;-77
2023/09/30 05:03:07;;;;;;;0.70;0.70;;;10.70;99.90;;;;;;5115360;28;20483;-75
2023/09/30 05:05:34;;;;;;;0.50;0.50;;;10.60;99.90;;;;;;5115277;28;20032;-76
2023/09/30 05:07:59;;;;;;;0.85;0.85;;;10.80;99.90;;;;;;5115143;28;20063;-73
2023/09/30 05:10:25;;;;;;;0.40;0.40;;;10.70;99.90;;;;;;5115190;28;20032;-76
2023/09/30 05:12:53;;;;;;;0.50;0.50;;;10.70;99.90;;;;;;5114799;28;20036;-76
2023/09/30 05:15:20;;;;;;;0.60;0.60;;;10.80;99.90;;;;;;5115000;28;20075;-74
2023/09/30 05:17:46;;;;;;;;;;;11.00;99.90;;;;;;5115443;28;20114;-75
2023/09/30 05:20:12;;;;;;;0.60;0.60;;;10.70;99.90;;;;;;5114764;28;20443;-74
2023/09/30 05:22:44;;;;;;;0.50;0.50;;;10.70;99.90;;;;;;5114911;28;20071;-75
2023/09/30 05:25:10;;;;;;;0.50;0.50;;;10.80;99.90;;;;;;5114615;28;20043;-76
2023/09/30 05:27:37;;;;;;;0.80;0.80;;;10.80;99.90;;;;;;5115309;28;20420;-76
2023/09/30 05:30:05;;;;;;;0.50;0.50;;;10.80;99.90;;;;;;5114738;28;20046;-75
2023/09/30 05:32:31;;;;;;;0.50;0.50;;;10.80;99.90;;;;;;5114698;28;20043;-74
2023/09/30 05:34:57;;;;;;;0.50;0.50;;;10.90;99.90;;;;;;5114500;28;20076;-76
2023/09/30 05:37:25;;;;;;;0.43;0.43;;;10.90;99.90;;;;;;5114624;28;20092;-76
2023/09/30 05:39:50;;;;;;;0.52;0.52;;;10.90;99.90;;;;;;5114529;28;20075;-76
2023/09/30 05:42:17;;;;;;;0.52;0.52;;;10.90;99.90;;;;;;5114468;28;20494;-76
2023/09/30 05:44:42;;;;;;;0.50;0.50;;;10.90;99.90;;;;;;5114567;28;20035;-75
2023/09/30 05:47:08;;;;;;;0.60;0.60;;;10.90;99.90;;;;;;5113019;28;20547;-76
2023/09/30 05:49:36;;;;;;;0.70;0.70;;;10.90;99.90;;;;;;5114550;28;20445;-75
2023/09/30 05:52:02;;;;;;;0.60;0.60;;;10.90;99.90;;;;;;5114539;28;20122;-74
2023/09/30 05:54:28;;;;;;;0.50;0.50;;;10.80;99.90;;;;;;5114307;27;20039;-75
2023/09/30 05:56:54;;;;;;;0.60;0.60;;;10.80;99.90;;;;;;5114477;28;20039;-74
2023/09/30 05:59:20;;;;;;;0.60;0.60;;;10.80;99.90;;;;;;5114301;28;20450;-74
2023/09/30 06:01:46;;;;;;;0.63;0.63;;;10.70;99.90;;;;;;5114373;28;20359;-75
2023/09/30 06:04:12;;;;;;;0.60;0.60;;;10.80;99.90;;;;;;5114314;28;20058;-75
2023/09/30 06:06:38;;;;;;;0.50;0.50;;;10.80;99.90;;;;;;5114131;28;20036;-75
2023/09/30 06:09:07;;;;;;;1.77;1.25;;;10.80;99.90;;;;;;5114815;28;20043;-74
2023/09/30 06:11:33;;;;;;;0.55;0.55;;;10.80;99.90;;;;;;5114137;28;20043;-71
2023/09/30 06:14:00;;;;;;;0.50;0.50;;;11.00;99.90;;;;;;5114046;28;20044;-77
2023/09/30 06:16:26;;;;;;;0.60;0.60;;;10.80;99.90;;;;;;5114128;28;20044;-74
2023/09/30 06:18:53;;;;;;;0.60;0.60;;;10.80;99.90;;;;;;5113786;28;20100;-74
2023/09/30 06:21:20;;;;;;;0.60;0.60;;;10.80;99.90;;;;;;5114195;28;20044;-76
2023/09/30 06:23:47;;;;;;;0.60;0.60;;;10.90;99.90;;;;;;5113948;28;20039;-75
2023/09/30 06:26:13;;;;;;;0.50;0.50;;;10.90;99.90;;;;;;5114529;28;20082;-76
2023/09/30 06:28:42;;;;;;;0.70;0.70;;;10.80;99.90;;;;;;5114360;28;20082;-76
2023/09/30 06:31:08;;;;;;;0.60;0.60;;;10.90;99.90;;;;;;5113929;28;20089;-74
2023/09/30 06:33:35;;;;;;;0.60;0.60;;;10.90;99.90;;;;;;5113898;28;20408;-75
2023/09/30 06:36:02;;;;;;;0.70;0.70;;;10.90;99.90;;;;;;5113892;28;20409;-76
2023/09/30 06:38:27;;;;;;;1.05;0.52;;;11.00;99.90;;;;;;5113869;28;20052;-74
2023/09/30 06:40:53;;;;;;;0.57;0.57;;;11.00;99.90;;;;;;5114057;28;20478;-72
2023/09/30 06:43:20;;;;;;;0.60;0.60;;;11.00;99.90;;;;;;5113856;28;20043;-76
2023/09/30 06:45:46;;;;;;;0.57;0.57;;;11.00;99.90;;;;;;5114198;28;20118;-75
2023/09/30 06:48:12;;;;;;;0.45;0.45;;;11.00;99.90;;;;;;5113856;28;20039;-74
2023/09/30 06:50:46;;;;;;;0.50;0.50;;;11.10;99.90;;;;;;5113770;28;20507;-74
2023/09/30 06:53:11;;;;;;;0.55;0.55;;;11.10;99.90;;;;;;5113761;28;20044;-76
2023/09/30 06:55:40;;;;;;;0.50;0.50;;;11.10;99.90;;;;;;5113625;28;20046;-76
2023/09/30 06:58:07;;;;;;;0.82;0.82;;;11.10;99.90;;;;;;5114006;27;20043;-74
2023/09/30 07:00:34;;;;;;;0.55;0.55;;;11.20;99.90;;;;;;5117711;28;20043;-77
2023/09/30 07:03:00;;;;;;;0.60;0.60;;;11.30;99.90;;;;;;5117688;28;20047;-75
2023/09/30 07:05:26;;;;;;;0.60;0.60;;;11.30;99.90;;;;;;5117641;28;20082;-76
2023/09/30 07:07:51;;;;;;;0.60;0.60;;;11.40;99.90;;;;;;5117909;28;20079;-74
2023/09/30 07:10:17;;;;;;;0.70;0.70;;;11.50;99.90;;;;;;5117927;28;20046;-76
2023/09/30 07:12:42;;;;;;;0.52;0.52;;;11.60;99.90;;;;;;5117409;28;20475;-76
2023/09/30 07:15:08;;;;;;;2.15;1.02;;;11.60;99.90;;;;;;5117645;28;20040;-76
2023/09/30 07:17:35;;;;;;;0.57;0.57;;;11.70;99.90;;;;;;5117727;28;20113;-76
2023/09/30 07:20:02;;;;;;;0.50;0.50;;;11.80;99.90;;;;;;5117389;28;20036;-73
2023/09/30 07:22:27;;;;;;;0.60;0.60;;;12.00;99.90;;;;;;5117284;28;20044;-76
2023/09/30 07:24:53;;;;;;;0.50;0.50;;;12.10;99.90;;;;;;5117143;28;20032;-74
2023/09/30 07:27:19;;;;;;;0.50;0.50;;;12.10;99.90;;;;;;5117195;28;20371;-75
2023/09/30 07:29:44;;;;;;;0.40;0.40;;;12.20;99.90;;;;;;5117169;28;20048;-71
2023/09/30 07:32:10;;;;;;;0.50;0.50;;;12.30;99.90;;;;;;5117021;28;20035;-72
2023/09/30 07:34:36;;;;;;;0.70;0.70;;;12.40;99.90;;;;;;5117001;28;20544;-74
2023/09/30 07:37:01;;;;;;;0.50;0.50;;;12.50;99.90;;;;;;5116986;28;20044;-75
2023/09/30 07:39:27;;;;;;;0.95;0.90;;;12.60;99.90;;;;;;5117040;28;20122;-75
2023/09/30 07:41:52;;;;;;;0.55;0.55;;;12.60;99.90;;;;;;5116661;28;20031;-76
2023/09/30 07:44:18;;;;;;;0.70;0.70;;;12.80;99.90;;;;;;5117266;28;20043;-75
2023/09/30 07:46:43;;;;;;;1.90;0.97;;;12.90;99.90;;;;;;5116887;28;20105;-76
2023/09/30 07:49:10;;;;;;;1.25;0.90;;;12.90;99.90;;;;;;5116845;28;20108;-73
2023/09/30 07:51:36;;;;;;;0.88;0.80;;;13.00;99.90;;;;;;5115703;28;20036;-75
2023/09/30 07:54:03;;;;;;;1.05;0.88;;;13.20;99.90;;;;;;5116641;28;20084;-76
2023/09/30 07:56:29;;;;;;;;;;;13.30;99.90;;;;;;5116988;28;20043;-72
2023/09/30 07:58:54;;;;;;;0.50;0.50;;;13.40;99.90;;;;;;5116473;28;20015;-74
2023/09/30 08:01:21;;;;;;;0.50;0.50;;;13.60;99.90;;;;;;5116542;28;20097;-76
2023/09/30 08:03:47;;;;;;;0.40;0.40;;;13.70;99.90;;;;;;5116470;27;20479;-74
2023/09/30 08:06:12;;;;;;;0.47;0.47;;;13.80;99.90;;;;;;5116328;28;20035;-75
2023/09/30 08:08:38;;;;;;;0.60;0.60;;;13.90;99.90;;;;;;5116427;28;20059;-74
2023/09/30 08:11:05;;;;;;;0.50;0.50;;;14.00;99.90;;;;;;5115962;28;20058;-75
2023/09/30 08:13:34;;;;;;;0.50;0.50;;;14.10;99.90;;;;;;5116275;28;20035;-75
2023/09/30 08:16:00;;;;;;;0.93;0.93;;;14.10;99.90;;;;;;5116104;28;20102;-75
2023/09/30 08:18:26;;;;;;;0.50;0.50;;;14.20;99.90;;;;;;5116166;28;20043;-75
2023/09/30 08:20:52;;;;;;;0.75;0.75;;;14.20;99.90;;;;;;5116080;28;20040;-75
2023/09/30 08:23:17;;;;;;;0.87;0.73;;;14.30;99.90;;;;;;5115786;28;20121;-74
2023/09/30 08:25:43;;;;;;;1.30;0.87;;;14.20;99.90;;;;;;5116029;28;20031;-74
2023/09/30 08:28:09;;;;;;;0.68;0.68;;;14.30;99.90;;;;;;5115968;28;20051;-74
2023/09/30 08:30:36;;;;;;;0.60;0.50;;;14.20;99.90;;;;;;5116137;28;20035;-73
2023/09/30 08:33:07;;;;;;;1.60;0.88;;;14.20;99.90;;;;;;5115889;28;20035;-74
2023/09/30 08:35:37;;;;;;;0.65;0.65;;;14.20;99.90;;;;;;5115785;28;20344;-74
2023/09/30 08:38:03;;;;;;;1.17;1.02;;;14.10;99.90;;;;;;5116196;28;20039;-75
2023/09/30 08:40:30;;;;;;;0.80;0.70;;;14.20;99.90;;;;;;5116118;28;20073;-75
2023/09/30 08:42:55;;;;;;;0.70;0.70;;;14.30;99.90;;;;;;5115590;28;20039;-76
2023/09/30 08:45:21;;;;;;;1.70;0.77;;;14.40;99.90;;;;;;5114758;28;20036;-76
2023/09/30 08:47:47;;;;;;;9.10;1.83;;;14.50;99.90;;;;;;5115446;28;20044;-76
2023/09/30 08:50:13;;;;;;;0.40;0.40;;;14.60;99.90;;;;;;5115588;27;20031;-75
2023/09/30 08:52:43;;;;;;;1.17;0.85;;;14.80;99.90;;;;;;5115560;28;20039;-76
2023/09/30 08:55:13;;;;;;;0.52;0.50;;;14.80;99.90;;;;;;5115405;28;20107;-74
2023/09/30 08:57:41;;;;;;;0.70;0.70;;;15.00;99.90;;;;;;5115661;28;20039;-76
2023/09/30 09:00:11;;;;;;;0.60;0.60;;;15.10;99.90;;;;;;5115316;28;20498;-73
2023/09/30 09:02:37;;;;;;;0.57;0.50;;;15.20;99.90;;;;;;5115257;28;20040;-77
2023/09/30 09:05:03;;;;;;;1.20;0.65;;;15.30;99.90;;;;;;5115271;28;20161;-77
2023/09/30 09:07:30;;;;;;;0.53;0.53;;;15.40;99.90;;;;;;5115399;28;20475;-75
2023/09/30 09:10:08;;;;;;;;;;;15.40;99.90;;;;;;5115930;28;20047;-74
2023/09/30 09:12:35;;;;;;;0.80;0.68;;;15.50;99.90;;;;;;5115275;28;19984;-75
2023/09/30 09:15:01;;;;;;;1.17;0.82;;;15.60;99.90;;;;;;5114969;28;20075;-75
2023/09/30 09:17:44;;;;;;;0.55;0.55;;;15.70;99.90;;;;;;5114907;28;20039;-74
2023/09/30 09:20:21;;;;;;;1.13;0.82;;;15.80;99.90;;;;;;5115323;28;20039;-74
2023/09/30 09:22:50;;;;;;;0.52;0.52;;;15.90;99.90;;;;;;5114576;28;20134;-73
2023/09/30 09:25:16;;;;;;;0.52;0.52;;;16.00;99.90;;;;;;5114798;28;20126;-75
2023/09/30 09:27:42;;;;;;;0.40;0.40;;;16.10;99.90;;;;;;5114761;28;20154;-76
2023/09/30 09:30:18;;;;;;;0.63;0.63;;;16.20;99.90;;;;;;5114893;28;20043;-74
2023/09/30 09:33:00;;;;;;;0.50;0.50;;;16.30;99.90;;;;;;5114988;28;20176;-74
2023/09/30 09:35:30;;;;;;;0.40;0.40;;;16.40;99.90;;;;;;5114600;28;20127;-73
2023/09/30 09:37:59;;;;;;;0.63;0.63;;;16.50;99.90;;;;;;5114811;28;20063;-74
2023/09/30 09:40:28;;;;;;;0.63;0.60;;;16.60;99.90;;;;;;5114613;28;20348;-76
2023/09/30 09:42:55;;;;;;;0.50;0.50;;;16.60;99.90;;;;;;5114536;28;20084;-75
2023/09/30 09:45:26;;;;;;;0.77;0.50;;;16.70;99.90;;;;;;5114600;28;20421;-75
2023/09/30 09:47:54;;;;;;;0.60;0.60;;;16.80;99.90;;;;;;5114770;28;20044;-74
2023/09/30 09:50:23;;;;;;;0.57;0.50;;;16.80;99.90;;;;;;5114492;28;20421;-75
2023/09/30 09:52:51;;;;;;;0.77;0.50;;;16.80;99.90;;;;;;5112923;28;20433;-74
2023/09/30 09:55:18;;;;;;;0.60;0.60;;;16.70;99.90;;;;;;5114020;28;20562;-76
2023/09/30 09:57:45;;;;;;;0.50;0.50;;;16.70;99.90;;;;;;5113432;28;20383;-77
2023/09/30 10:00:37;;;;;;;;;;;16.70;99.90;;;;;;5114626;28;20047;-75
2023/09/30 10:03:03;;;;;;;0.55;0.55;;;16.80;99.90;;;;;;5110930;28;19970;-76
2023/09/30 10:05:29;;;;;;;0.77;0.77;;;16.80;99.90;;;;;;5114243;28;20047;-75
2023/09/30 10:08:01;;;;;;;1.15;1.00;;;16.90;99.90;;;;;;5114171;28;20050;-76
2023/09/30 10:10:28;;;;;;;0.82;0.82;;;17.00;99.90;;;;;;5114474;28;20048;-75
2023/09/30 10:12:54;;;;;;;0.65;0.40;;;17.00;99.90;;;;;;5114146;28;20040;-75
2023/09/30 10:15:40;;;;;;;1.30;0.53;;;17.10;99.90;;;;;;5114061;28;20049;-76
2023/09/30 10:18:12;;;;;;;0.40;0.40;;;17.20;99.90;;;;;;5114087;28;20045;-75
2023/09/30 10:20:47;;;;;;;0.60;0.60;;;17.30;99.90;;;;;;5114124;28;20035;-76
2023/09/30 10:23:24;;;;;;;0.40;0.40;;;17.40;99.90;;;;;;5114163;28;20050;-74
2023/09/30 10:25:57;;;;;;;0.55;0.55;;;17.50;99.90;;;;;;5114289;28;20051;-75
2023/09/30 10:28:45;;;;;;;0.30;0.30;;;17.60;99.90;;;;;;5114034;28;20039;-75
2023/09/30 10:31:13;;;;;;;0.30;0.30;;;17.70;99.90;;;;;;5114061;28;20119;-75
2023/09/30 10:34:02;;;;;;;0.55;0.55;;;17.70;99.90;;;;;;5116885;28;20055;-77
2023/09/30 10:36:28;;;;;;;0.40;0.40;;;17.80;99.90;;;;;;5107259;28;20219;-74
2023/09/30 10:38:54;;;;;;;0.55;0.55;;;17.90;99.90;;;;;;5118160;28;20039;-76
2023/09/30 10:41:41;;;;;;;0.30;0.30;;;18.00;99.90;;;;;;5118205;28;20463;-75
2023/09/30 10:44:25;;;;;;;0.90;0.60;;;18.10;99.90;;;;;;5118084;28;20423;-76
2023/09/30 10:46:51;;;;;;;1.17;0.52;;;18.10;99.90;;;;;;5117934;28;20050;-75
2023/09/30 10:49:23;;;;;;;0.55;0.55;;;18.20;99.90;;;;;;5117941;28;20054;-76
2023/09/30 10:51:56;;;;;;;0.73;0.65;;;18.30;99.90;;;;;;5118310;28;20084;-75
2023/09/30 10:54:32;;;;;;;0.95;0.60;;;18.40;99.90;;;;;;5117889;28;20035;-77
2023/09/30 10:56:59;;;;;;;0.60;0.60;;;18.40;99.90;;;;;;5118035;28;20479;-74
2023/09/30 10:59:27;;;;;;;0.30;0.30;;;18.50;99.90;;;;;;5117753;28;20068;-74
2023/09/30 11:01:53;;;;;;;0.52;0.52;;;18.60;99.90;;;;;;5117644;28;20039;-76
2023/09/30 11:04:19;;;;;;;0.93;0.90;;;18.70;99.90;;;;;;5117724;27;20062;-75
2023/09/30 11:06:46;;;;;;;0.50;0.50;;;18.70;99.90;;;;;;5118094;28;20036;-77
2023/09/30 11:09:19;;;;;;;0.70;0.70;;;18.70;99.90;;;;;;5117826;28;20055;-74
2023/09/30 11:11:49;;;;;;;0.68;0.40;;;18.90;99.90;;;;;;5117769;28;20051;-75
2023/09/30 11:14:22;;;;;;;0.43;0.43;;;19.00;99.90;;;;;;5117419;28;20071;-75
2023/09/30 11:16:49;;;;;;;0.60;0.60;;;19.10;99.90;;;;;;5117418;28;20148;-75
2023/09/30 11:19:15;;;;;;;0.40;0.40;;;19.00;99.90;;;;;;5117380;28;20127;-75
2023/09/30 11:21:43;;;;;;;0.40;0.40;;;19.00;99.90;;;;;;5117428;28;20487;-74
2023/09/30 11:24:10;;;;;;;0.32;0.32;;;19.00;99.90;;;;;;5117275;28;20035;-74
2023/09/30 11:26:36;;;;;;;0.90;0.52;;;19.10;99.90;;;;;;5117357;28;20081;-74
2023/09/30 11:29:15;;;;;;;0.40;0.40;;;19.10;99.90;;;;;;5117051;28;20044;-75
2023/09/30 11:31:42;;;;;;;0.50;0.50;;;19.10;99.90;;;;;;5117227;28;20035;-75
2023/09/30 11:34:09;;;;;;;0.40;0.40;;;19.20;99.90;;;;;;5117038;28;20036;-76
2023/09/30 11:36:44;;;;;;;0.30;0.30;;;19.40;99.90;;;;;;5117157;28;20043;-75
2023/09/30 11:39:13;;;;;;;0.20;0.20;;;19.50;99.90;;;;;;5117228;27;20043;-75
2023/09/30 11:41:41;;;;;;;0.43;0.43;;;19.70;99.90;;;;;;5116874;28;20044;-75
2023/09/30 11:44:12;;;;;;;0.30;0.30;;;19.90;99.90;;;;;;5115926;28;20119;-74
2023/09/30 11:47:08;;;;;;;0.40;0.40;;;20.00;99.90;;;;;;5116906;28;20123;-76
2023/09/30 11:49:39;;;;;;;0.30;0.30;;;20.10;99.90;;;;;;5100093;28;20379;-77
2023/09/30 11:52:07;;;;;;;0.40;0.40;;;20.10;99.90;;;;;;5116731;28;20047;-75
2023/09/30 11:54:40;;;;;;;0.40;0.40;;;20.10;99.90;;;;;;5117373;28;20043;-74
2023/09/30 11:57:09;;;;;;;0.30;0.30;;;20.10;99.90;;;;;;5116733;28;20039;-75
2023/09/30 11:59:36;;;;;;;0.30;0.30;;;20.10;99.90;;;;;;5116642;28;20467;-74
2023/09/30 12:02:03;;;;;;;;;;;20.10;99.90;;;;;;5117019;28;20050;-76
2023/09/30 12:04:29;;;;;;;1.00;0.45;;;20.20;99.90;;;;;;5116521;28;19923;-74
2023/09/30 12:06:55;;;;;;;0.40;0.40;;;20.20;99.90;;;;;;5116524;28;20035;-75
2023/09/30 12:09:26;;;;;;;0.50;0.50;;;20.20;99.90;;;;;;5116117;28;20364;-77
2023/09/30 12:11:53;;;;;;;0.30;0.30;;;20.30;99.90;;;;;;5115639;28;20356;-75
2023/09/30 12:14:20;;;;;;;0.20;0.20;;;20.30;99.90;;;;;;5116770;28;20039;-74
2023/09/30 12:16:47;;;;;;;0.30;0.30;;;20.30;99.90;;;;;;5116333;28;20040;-74
2023/09/30 12:19:13;;;;;;;0.30;0.30;;;20.30;99.90;;;;;;5116129;28;20044;-76
2023/09/30 12:21:40;;;;;;;0.32;0.32;;;20.30;99.90;;;;;;5116634;28;20168;-76
2023/09/30 12:24:07;;;;;;;0.20;0.20;;;20.30;99.90;;;;;;5116546;28;20379;-74
2023/09/30 12:26:33;;;;;;;0.30;0.30;;;20.30;99.90;;;;;;5116362;28;20066;-76
2023/09/30 12:28:59;;;;;;;0.33;0.33;;;20.30;99.90;;;;;;5116106;28;20039;-75
2023/09/30 12:31:24;;;;;;;1.93;0.63;;;20.30;99.90;;;;;;5116089;28;20035;-75
2023/09/30 12:33:51;;;;;;;0.20;0.20;;;20.30;99.90;;;;;;5115903;28;20100;-76
2023/09/30 12:36:18;;;;;;;0.30;0.30;;;20.30;99.90;;;;;;5115954;28;20047;-74
2023/09/30 12:38:44;;;;;;;0.30;0.30;;;20.30;99.90;;;;;;5115894;28;20046;-75
2023/09/30 12:41:10;;;;;;;0.30;0.30;;;20.40;99.90;;;;;;5115837;28;20043;-75
2023/09/30 12:43:36;;;;;;;0.30;0.30;;;20.50;99.90;;;;;;5115854;28;20047;-75
2023/09/30 12:46:02;;;;;;;0.30;0.30;;;20.50;99.90;;;;;;5115722;28;20479;-75
2023/09/30 12:48:28;;;;;;;0.30;0.30;;;20.60;99.90;;;;;;5115677;28;20086;-76